createdAt,value
2018-08-23T00:01:14.605Z,25.7
2018-08-23T00:01:25.120Z,25.7
2018-08-23T00:02:16.283Z,25.7
2018-08-23T00:03:05.865Z,25.7
2018-08-23T00:03:56.858Z,25.7
2018-08-23T00:04:45.113Z,25.7
2018-08-23T00:05:35.307Z,25.7
2018-08-23T00:06:25.509Z,25.7
2018-08-23T00:07:16.117Z,25.7
2018-08-23T00:08:06.831Z,25.7
2018-08-23T00:08:57.398Z,25.7
2018-08-23T00:09:46.510Z,25.7
2018-08-23T00:10:37.150Z,25.7
2018-08-23T00:11:26.895Z,25.7
2018-08-23T00:12:16.757Z,25.7
2018-08-23T00:31:33.503Z,25.6
2018-08-23T00:32:24.149Z,25.6
2018-08-23T00:33:13.869Z,25.6
2018-08-23T00:34:03.931Z,25.6
2018-08-23T00:34:54.376Z,25.6
2018-08-23T00:35:44.089Z,25.6
2018-08-23T00:36:32.766Z,25.6
2018-08-23T00:37:23.603Z,25.6
2018-08-23T00:38:12.873Z,25.6
2018-08-23T00:39:04.093Z,25.6
2018-08-23T00:39:54.708Z,25.6
2018-08-23T00:40:44.546Z,25.6
2018-08-23T00:41:34.020Z,25.6
2018-08-23T00:42:24.057Z,25.6
2018-08-23T00:43:14.046Z,25.6
2018-08-23T00:44:04.185Z,25.6
2018-08-23T00:44:51.966Z,25.6
2018-08-23T00:45:43.766Z,25.6
2018-08-23T00:46:34.406Z,25.6
2018-08-23T00:47:24.922Z,25.6
2018-08-23T00:48:14.466Z,25.6
2018-08-23T00:49:03.641Z,25.6
2018-08-23T00:49:54.585Z,25.6
2018-08-23T00:50:43.480Z,25.6
2018-08-23T00:51:33.819Z,25.6
2018-08-23T00:52:25.394Z,25.6
2018-08-23T00:53:16.032Z,25.6
2018-08-23T00:54:04.983Z,25.6
2018-08-23T00:54:55.605Z,25.6
2018-08-23T00:55:44.448Z,25.6
2018-08-23T00:56:33.987Z,25.6
2018-08-23T00:57:24.040Z,25.6
2018-08-23T00:58:15.493Z,25.6
2018-08-23T00:59:06.414Z,25.6
2018-08-23T00:59:56.394Z,25.6
2018-08-23T01:00:45.927Z,25.6
2018-08-23T01:01:36.341Z,25.5
2018-08-23T01:02:26.631Z,25.6
2018-08-23T01:03:15.891Z,25.6
2018-08-23T01:04:05.660Z,25.6
2018-08-23T01:04:56.556Z,25.5
2018-08-23T01:05:46.287Z,25.5
2018-08-23T01:06:36.383Z,25.5
2018-08-23T01:07:26.739Z,25.5
2018-08-23T01:08:16.285Z,25.5
2018-08-23T01:09:06.889Z,25.5
2018-08-23T01:09:57.210Z,25.5
2018-08-23T01:10:46.162Z,25.5
2018-08-23T01:11:36.549Z,25.5
2018-08-23T01:12:27.131Z,25.5
2018-08-23T01:13:16.622Z,25.5
2018-08-23T01:14:06.944Z,25.5
2018-08-23T01:14:56.802Z,25.5
2018-08-23T01:15:46.241Z,25.5
2018-08-23T01:16:36.884Z,25.5
2018-08-23T01:17:27.251Z,25.5
2018-08-23T01:18:15.023Z,25.5
2018-08-23T01:19:05.073Z,25.5
2018-08-23T01:19:57.192Z,25.5
2018-08-23T01:20:46.399Z,25.4
2018-08-23T01:21:37.616Z,25.5
2018-08-23T01:22:27.444Z,25.4
2018-08-23T01:23:17.773Z,25.4
2018-08-23T01:24:07.466Z,25.5
2018-08-23T01:24:57.938Z,25.4
2018-08-23T01:25:46.497Z,25.4
2018-08-23T01:26:36.830Z,25.4
2018-08-23T01:27:28.026Z,25.4
2018-08-23T01:28:17.874Z,25.4
2018-08-23T01:29:07.311Z,25.4
2018-08-23T01:29:57.089Z,25.4
2018-08-23T01:30:47.743Z,25.4
2018-08-23T01:31:38.397Z,25.4
2018-08-23T01:32:28.205Z,25.4
2018-08-23T01:33:18.227Z,25.4
2018-08-23T01:34:07.403Z,25.4
2018-08-23T01:34:58.291Z,25.4
2018-08-23T01:35:48.395Z,25.4
2018-08-23T01:36:39.238Z,25.5
2018-08-23T01:37:28.750Z,25.4
2018-08-23T01:38:18.270Z,25.4
2018-08-23T01:39:08.893Z,25.4
2018-08-23T01:39:58.918Z,25.4
2018-08-23T01:40:49.295Z,25.4
2018-08-23T01:41:38.843Z,25.4
2018-08-23T01:42:28.083Z,25.4
2018-08-23T01:43:19.481Z,25.4
2018-08-23T01:44:09.490Z,25.4
2018-08-23T01:44:59.294Z,25.4
2018-08-23T01:45:47.980Z,25.4
2018-08-23T01:46:38.907Z,25.4
2018-08-23T01:47:29.489Z,25.4
2018-08-23T01:48:19.870Z,25.4
2018-08-23T01:49:09.380Z,25.4
2018-08-23T01:49:59.387Z,25.4
2018-08-23T01:50:49.185Z,25.4
2018-08-23T01:51:38.829Z,25.4
2018-08-23T01:52:31.655Z,25.4
2018-08-23T01:53:19.490Z,25.4
2018-08-23T01:54:10.137Z,25.4
2018-08-23T01:54:59.567Z,25.4
2018-08-23T01:55:48.333Z,25.4
2018-08-23T01:56:39.214Z,25.4
2018-08-23T01:57:28.895Z,25.4
2018-08-23T01:58:19.516Z,25.4
2018-08-23T01:59:10.011Z,25.4
2018-08-23T01:59:58.512Z,25.4
2018-08-23T02:00:49.759Z,25.4
2018-08-23T02:01:40.122Z,25.4
2018-08-23T02:02:30.399Z,25.4
2018-08-23T02:03:20.531Z,25.4
2018-08-23T02:04:09.489Z,25.4
2018-08-23T02:04:59.799Z,25.4
2018-08-23T02:05:50.424Z,25.4
2018-08-23T02:06:39.349Z,25.4
2018-08-23T02:07:29.694Z,25.4
2018-08-23T02:08:21.789Z,25.4
2018-08-23T02:09:10.054Z,25.4
2018-08-23T02:10:01.540Z,25.4
2018-08-23T02:10:51.273Z,25.4
2018-08-23T02:11:41.376Z,25.4
2018-08-23T02:12:31.976Z,25.4
2018-08-23T02:13:21.561Z,25.4
2018-08-23T02:14:11.290Z,25.4
2018-08-23T02:15:01.935Z,25.4
2018-08-23T02:15:51.779Z,25.4
2018-08-23T02:16:41.453Z,25.4
2018-08-23T02:17:32.346Z,25.4
2018-08-23T02:18:21.581Z,25.4
2018-08-23T02:19:11.796Z,25.4
2018-08-23T02:20:01.308Z,25.4
2018-08-23T02:20:51.540Z,25.3
2018-08-23T02:21:42.087Z,25.4
2018-08-23T02:22:31.680Z,25.4
2018-08-23T02:23:21.923Z,25.3
2018-08-23T02:24:11.760Z,25.4
2018-08-23T02:25:02.187Z,25.4
2018-08-23T02:25:51.668Z,25.4
2018-08-23T02:26:41.998Z,25.4
2018-08-23T02:27:30.548Z,25.3
2018-08-23T02:28:21.539Z,25.4
2018-08-23T02:29:11.439Z,25.4
2018-08-23T02:30:02.645Z,25.4
2018-08-23T02:30:53.007Z,25.3
2018-08-23T02:31:42.711Z,25.3
2018-08-23T02:32:31.856Z,25.4
2018-08-23T02:33:22.240Z,25.3
2018-08-23T02:34:13.110Z,25.3
2018-08-23T02:35:02.645Z,25.3
2018-08-23T02:35:53.588Z,25.3
2018-08-23T02:36:43.599Z,25.3
2018-08-23T02:37:31.928Z,25.3
2018-08-23T02:38:24.205Z,25.3
2018-08-23T02:39:12.763Z,25.3
2018-08-23T02:40:02.790Z,25.3
2018-08-23T02:40:53.114Z,25.3
2018-08-23T02:41:43.729Z,25.3
2018-08-23T02:42:33.771Z,25.3
2018-08-23T02:43:23.431Z,25.3
2018-08-23T02:44:13.151Z,25.3
2018-08-23T02:45:03.207Z,25.3
2018-08-23T02:45:53.814Z,25.3
2018-08-23T02:46:44.048Z,25.3
2018-08-23T02:47:34.205Z,25.3
2018-08-23T02:48:24.474Z,25.3
2018-08-23T02:49:14.847Z,25.3
2018-08-23T02:50:04.610Z,25.3
2018-08-23T02:50:54.744Z,25.3
2018-08-23T02:51:44.474Z,25.3
2018-08-23T02:52:34.174Z,25.3
2018-08-23T02:53:23.427Z,25.3
2018-08-23T02:54:14.375Z,25.3
2018-08-23T02:55:04.134Z,25.3
2018-08-23T02:55:53.871Z,25.3
2018-08-23T02:56:44.006Z,25.3
2018-08-23T02:57:33.837Z,25.3
2018-08-23T02:58:24.090Z,25.3
2018-08-23T02:59:15.122Z,25.3
2018-08-23T03:00:04.567Z,25.3
2018-08-23T03:00:53.820Z,25.3
2018-08-23T03:01:45.583Z,25.3
2018-08-23T03:02:34.433Z,25.3
2018-08-23T03:03:25.700Z,25.3
2018-08-23T03:04:15.784Z,25.3
2018-08-23T03:05:05.006Z,25.3
2018-08-23T03:05:54.742Z,25.3
2018-08-23T03:06:46.006Z,25.3
2018-08-23T03:07:35.531Z,25.3
2018-08-23T03:08:25.244Z,25.3
2018-08-23T03:09:15.609Z,25.3
2018-08-23T03:10:05.721Z,25.3
2018-08-23T03:10:55.722Z,25.3
2018-08-23T03:11:46.314Z,25.3
2018-08-23T03:12:35.806Z,25.3
2018-08-23T03:13:25.403Z,25.3
2018-08-23T03:14:16.421Z,25.3
2018-08-23T03:15:06.304Z,25.3
2018-08-23T03:15:54.911Z,25.3
2018-08-23T03:16:46.797Z,25.3
2018-08-23T03:17:36.509Z,25.3
2018-08-23T03:18:26.808Z,25.3
2018-08-23T03:19:16.028Z,25.3
2018-08-23T03:20:06.201Z,25.2
2018-08-23T03:20:56.987Z,25.3
2018-08-23T03:21:46.712Z,25.2
2018-08-23T03:22:36.536Z,25.3
2018-08-23T03:23:26.601Z,25.3
2018-08-23T03:24:16.945Z,25.3
2018-08-23T03:25:07.028Z,25.3
2018-08-23T03:25:56.513Z,25.3
2018-08-23T03:26:47.404Z,25.2
2018-08-23T03:27:36.069Z,25.3
2018-08-23T03:28:27.317Z,25.2
2018-08-23T03:29:17.330Z,25.2
2018-08-23T03:30:07.135Z,25.3
2018-08-23T03:30:57.572Z,25.2
2018-08-23T03:31:47.572Z,25.2
2018-08-23T03:32:36.817Z,25.2
2018-08-23T03:33:26.834Z,25.2
2018-08-23T03:34:18.040Z,25.2
2018-08-23T03:35:07.251Z,25.2
2018-08-23T03:35:57.579Z,25.2
2018-08-23T03:36:47.886Z,25.2
2018-08-23T03:37:38.024Z,25.2
2018-08-23T03:38:28.631Z,25.2
2018-08-23T03:39:17.482Z,25.2
2018-08-23T03:40:08.059Z,25.2
2018-08-23T03:40:57.967Z,25.2
2018-08-23T03:41:48.321Z,25.2
2018-08-23T03:42:38.154Z,25.2
2018-08-23T03:43:28.416Z,25.2
2018-08-23T03:44:17.378Z,25.2
2018-08-23T03:45:08.627Z,25.2
2018-08-23T03:45:58.977Z,25.1
2018-08-23T03:46:47.821Z,25.1
2018-08-23T03:47:38.187Z,25.2
2018-08-23T03:48:29.432Z,25.2
2018-08-23T03:49:18.045Z,25.2
2018-08-23T03:50:05.838Z,25.2
2018-08-23T03:50:57.596Z,25.1
2018-08-23T03:51:48.619Z,25.2
2018-08-23T03:52:38.876Z,25.2
2018-08-23T03:53:28.084Z,25.2
2018-08-23T03:54:19.026Z,25.1
2018-08-23T03:55:08.006Z,25.1
2018-08-23T03:55:59.701Z,25.1
2018-08-23T03:56:48.861Z,25.1
2018-08-23T03:57:38.988Z,25.1
2018-08-23T03:58:28.776Z,25.1
2018-08-23T03:59:19.661Z,25.1
2018-08-23T04:00:09.789Z,25.1
2018-08-23T04:01:00.057Z,25.1
2018-08-23T04:01:50.628Z,25.1
2018-08-23T04:02:39.083Z,25.1
2018-08-23T04:03:29.393Z,25.1
2018-08-23T04:04:19.763Z,25.1
2018-08-23T04:05:09.520Z,25.1
2018-08-23T04:05:59.329Z,25.1
2018-08-23T04:06:49.423Z,25.1
2018-08-23T04:07:39.469Z,25.1
2018-08-23T04:08:30.097Z,25.1
2018-08-23T04:09:19.835Z,25.1
2018-08-23T04:10:11.037Z,25.1
2018-08-23T04:10:59.696Z,25.1
2018-08-23T04:11:50.872Z,25.1
2018-08-23T04:12:40.097Z,25.1
2018-08-23T04:13:30.172Z,25.1
2018-08-23T04:14:20.044Z,25.1
2018-08-23T04:15:10.661Z,25.1
2018-08-23T04:16:00.425Z,25.1
2018-08-23T04:16:50.793Z,25.1
2018-08-23T04:17:39.955Z,25.1
2018-08-23T04:18:31.167Z,25.1
2018-08-23T04:19:21.511Z,25.1
2018-08-23T04:20:11.333Z,25.1
2018-08-23T04:21:01.970Z,25.1
2018-08-23T04:21:51.468Z,25.1
2018-08-23T04:22:41.701Z,25.1
2018-08-23T04:23:30.685Z,25.1
2018-08-23T04:24:21.349Z,25.1
2018-08-23T04:25:12.017Z,25.1
2018-08-23T04:26:01.804Z,25.1
2018-08-23T04:26:52.078Z,25.1
2018-08-23T04:27:41.309Z,25.1
2018-08-23T04:28:31.136Z,25.1
2018-08-23T04:29:21.641Z,25.1
2018-08-23T04:30:10.326Z,25.1
2018-08-23T04:31:01.901Z,25.1
2018-08-23T04:31:52.469Z,25.1
2018-08-23T04:32:41.677Z,25.1
2018-08-23T04:33:32.289Z,25.1
2018-08-23T04:34:21.445Z,25.1
2018-08-23T04:35:12.401Z,25.1
2018-08-23T04:36:02.793Z,25.1
2018-08-23T04:36:52.268Z,25.1
2018-08-23T04:37:42.363Z,25.1
2018-08-23T04:38:32.426Z,25.1
2018-08-23T04:39:22.425Z,25.1
2018-08-23T04:40:12.587Z,25.1
2018-08-23T04:41:02.425Z,25.1
2018-08-23T04:41:52.648Z,25
2018-08-23T04:42:42.435Z,25.1
2018-08-23T05:00:39.350Z,25
2018-08-23T05:01:30.348Z,25
2018-08-23T05:02:19.810Z,25.1
2018-08-23T05:03:10.100Z,25
2018-08-23T05:04:00.743Z,25.1
2018-08-23T05:04:50.224Z,25.1
2018-08-23T05:05:40.594Z,25
2018-08-23T05:06:30.171Z,25.1
2018-08-23T05:07:20.765Z,25
2018-08-23T05:08:11.010Z,25
2018-08-23T05:09:00.521Z,25
2018-08-23T05:09:50.038Z,25
2018-08-23T05:10:40.272Z,25
2018-08-23T05:11:30.542Z,25
2018-08-23T05:12:21.114Z,25
2018-08-23T05:13:10.037Z,25
2018-08-23T05:14:01.379Z,25
2018-08-23T05:14:50.932Z,25
2018-08-23T05:15:40.308Z,25
2018-08-23T05:16:30.610Z,25
2018-08-23T05:17:20.141Z,25
2018-08-23T05:18:10.722Z,25
2018-08-23T05:19:00.311Z,25
2018-08-23T05:19:51.441Z,25
2018-08-23T05:20:41.842Z,25
2018-08-23T05:21:30.995Z,25
2018-08-23T05:22:21.787Z,25
2018-08-23T05:23:12.545Z,25
2018-08-23T05:24:01.722Z,25
2018-08-23T05:24:52.327Z,25
2018-08-23T05:25:42.091Z,25
2018-08-23T05:26:31.615Z,25
2018-08-23T05:27:21.392Z,25
2018-08-23T05:28:12.058Z,25
2018-08-23T05:29:02.124Z,25
2018-08-23T05:29:53.829Z,25
2018-08-23T05:30:42.555Z,25
2018-08-23T05:31:32.254Z,25
2018-08-23T05:32:22.021Z,25.1
2018-08-23T05:33:12.979Z,25.1
2018-08-23T05:34:02.185Z,25.1
2018-08-23T05:34:51.717Z,25
2018-08-23T05:35:42.077Z,25
2018-08-23T05:36:32.928Z,25.1
2018-08-23T05:37:22.199Z,25.1
2018-08-23T05:38:13.327Z,25.1
2018-08-23T05:39:02.707Z,25.1
2018-08-23T05:39:52.070Z,25.1
2018-08-23T05:40:43.208Z,25.1
2018-08-23T05:41:32.470Z,25.1
2018-08-23T05:42:22.758Z,25.1
2018-08-23T05:43:12.833Z,25.1
2018-08-23T05:44:03.182Z,25.1
2018-08-23T05:44:53.252Z,25.1
2018-08-23T05:45:43.334Z,25.1
2018-08-23T05:46:34.385Z,25.1
2018-08-23T05:47:23.205Z,25.1
2018-08-23T05:48:13.375Z,25.1
2018-08-23T05:49:03.677Z,25.1
2018-08-23T05:49:53.964Z,25.1
2018-08-23T05:50:43.540Z,25.1
2018-08-23T05:51:33.810Z,25.1
2018-08-23T05:52:24.147Z,25.1
2018-08-23T05:53:13.659Z,25.1
2018-08-23T05:54:03.729Z,25.1
2018-08-23T05:54:52.942Z,25.1
2018-08-23T05:55:44.537Z,25.1
2018-08-23T05:56:33.088Z,25.1
2018-08-23T05:57:24.305Z,25.1
2018-08-23T05:58:14.052Z,25.1
2018-08-23T05:59:54.232Z,25.1
2018-08-23T06:00:44.057Z,25.1
2018-08-23T06:01:34.600Z,25.1
2018-08-23T06:02:24.114Z,25.1
2018-08-23T06:03:15.162Z,25.1
2018-08-23T06:04:04.462Z,25.1
2018-08-23T06:04:54.579Z,25.1
2018-08-23T06:05:45.234Z,25.1
2018-08-23T06:06:35.232Z,25.1
2018-08-23T06:07:25.361Z,25.1
2018-08-23T06:08:14.939Z,25
2018-08-23T06:09:05.170Z,25.1
2018-08-23T06:09:55.464Z,25
2018-08-23T06:10:45.240Z,25.1
2018-08-23T06:11:35.126Z,25
2018-08-23T06:12:25.131Z,25
2018-08-23T06:13:15.196Z,25.1
2018-08-23T06:14:05.169Z,25.1
2018-08-23T06:14:56.152Z,25.1
2018-08-23T06:15:45.906Z,25.1
2018-08-23T06:16:35.971Z,25
2018-08-23T06:17:25.480Z,25.1
2018-08-23T06:18:16.370Z,25.1
2018-08-23T06:19:05.879Z,25
2018-08-23T06:19:57.204Z,25
2018-08-23T06:20:46.571Z,25
2018-08-23T06:21:36.146Z,25
2018-08-23T06:22:26.777Z,25
2018-08-23T06:23:15.415Z,25
2018-08-23T06:24:03.598Z,25
2018-08-23T06:24:54.778Z,25
2018-08-23T06:25:45.593Z,25
2018-08-23T06:26:34.848Z,24.9
2018-08-23T06:27:24.076Z,24.9
2018-08-23T06:28:15.302Z,24.9
2018-08-23T06:29:04.495Z,24.9
2018-08-23T06:29:55.425Z,24.9
2018-08-23T06:30:44.300Z,24.9
2018-08-23T06:31:33.907Z,24.9
2018-08-23T06:32:24.395Z,24.9
2018-08-23T06:33:17.331Z,24.9
2018-08-23T06:34:06.761Z,24.9
2018-08-23T06:34:55.679Z,24.9
2018-08-23T06:35:45.510Z,24.9
2018-08-23T06:36:35.588Z,24.9
2018-08-23T06:37:25.488Z,24.9
2018-08-23T06:38:15.214Z,24.9
2018-08-23T06:39:04.952Z,24.9
2018-08-23T06:39:56.165Z,24.9
2018-08-23T06:40:46.577Z,24.9
2018-08-23T06:41:36.182Z,24.8
2018-08-23T06:42:27.069Z,24.9
2018-08-23T06:43:16.055Z,24.8
2018-08-23T06:44:05.553Z,24.9
2018-08-23T06:44:55.920Z,24.8
2018-08-23T06:45:45.942Z,24.8
2018-08-23T06:46:50.725Z,24.8
2018-08-23T06:47:26.185Z,24.9
2018-08-23T06:48:16.363Z,24.8
2018-08-23T06:49:07.096Z,24.8
2018-08-23T06:49:56.033Z,24.8
2018-08-23T06:50:45.765Z,24.8
2018-08-23T06:51:35.993Z,24.8
2018-08-23T06:52:26.655Z,24.8
2018-08-23T06:53:17.400Z,24.8
2018-08-23T06:54:06.999Z,24.8
2018-08-23T06:54:57.157Z,24.8
2018-08-23T06:55:46.627Z,24.8
2018-08-23T06:56:37.647Z,24.8
2018-08-23T06:57:26.531Z,24.8
2018-08-23T06:58:17.324Z,24.8
2018-08-23T06:59:06.928Z,24.8
2018-08-23T06:59:56.704Z,24.8
2018-08-23T07:00:47.154Z,24.8
2018-08-23T07:01:37.527Z,24.8
2018-08-23T07:02:27.077Z,24.8
2018-08-23T07:03:17.916Z,24.8
2018-08-23T07:04:07.663Z,24.8
2018-08-23T07:04:58.555Z,24.8
2018-08-23T07:05:47.343Z,24.8
2018-08-23T07:06:38.559Z,24.8
2018-08-23T07:07:27.786Z,24.8
2018-08-23T07:08:18.267Z,24.8
2018-08-23T07:09:07.691Z,24.8
2018-08-23T07:09:57.636Z,24.8
2018-08-23T07:10:48.948Z,24.8
2018-08-23T07:11:37.834Z,24.7
2018-08-23T07:12:28.001Z,24.8
2018-08-23T07:13:17.731Z,24.7
2018-08-23T07:14:07.949Z,24.8
2018-08-23T07:14:58.087Z,24.8
2018-08-23T07:15:47.773Z,24.8
2018-08-23T07:16:38.856Z,24.8
2018-08-23T07:17:28.094Z,24.8
2018-08-23T07:18:17.939Z,24.8
2018-08-23T07:19:07.788Z,24.8
2018-08-23T07:19:58.510Z,24.8
2018-08-23T07:20:47.680Z,24.8
2018-08-23T07:21:37.664Z,24.8
2018-08-23T07:22:30.115Z,24.8
2018-08-23T07:23:16.728Z,24.8
2018-08-23T07:24:09.183Z,24.8
2018-08-23T07:24:58.318Z,24.8
2018-08-23T07:25:48.996Z,24.8
2018-08-23T07:26:40.068Z,24.8
2018-08-23T07:27:28.527Z,24.8
2018-08-23T07:28:20.395Z,24.8
2018-08-23T07:29:09.739Z,24.8
2018-08-23T07:30:05.329Z,24.8
2018-08-23T07:30:51.119Z,24.8
2018-08-23T07:31:42.219Z,24.8
2018-08-23T07:32:31.113Z,24.8
2018-08-23T07:33:23.088Z,24.8
2018-08-23T07:34:11.779Z,24.8
2018-08-23T07:35:01.598Z,24.8
2018-08-23T07:35:52.553Z,24.8
2018-08-23T07:36:41.359Z,24.8
2018-08-23T07:37:30.405Z,24.8
2018-08-23T07:38:22.404Z,24.8
2018-08-23T07:39:13.023Z,24.8
2018-08-23T07:40:01.877Z,24.8
2018-08-23T07:40:52.909Z,24.8
2018-08-23T07:41:42.717Z,24.8
2018-08-23T07:42:31.429Z,24.8
2018-08-23T07:43:22.142Z,24.9
2018-08-23T07:44:11.739Z,24.8
2018-08-23T07:45:02.100Z,24.8
2018-08-23T07:45:53.326Z,24.8
2018-08-23T07:46:41.712Z,24.9
2018-08-23T07:47:32.564Z,24.9
2018-08-23T07:48:21.812Z,24.9
2018-08-23T07:49:12.204Z,24.8
2018-08-23T07:50:03.214Z,24.9
2018-08-23T07:50:53.114Z,24.9
2018-08-23T07:51:43.481Z,24.9
2018-08-23T07:52:33.735Z,24.9
2018-08-23T07:53:26.151Z,24.9
2018-08-23T07:54:13.626Z,24.9
2018-08-23T07:55:02.921Z,24.9
2018-08-23T07:55:53.853Z,24.9
2018-08-23T07:56:42.785Z,24.9
2018-08-23T07:57:33.591Z,24.9
2018-08-23T07:58:23.981Z,24.9
2018-08-23T07:59:14.265Z,24.9
2018-08-23T08:00:03.798Z,24.9
2018-08-23T08:00:54.147Z,24.9
2018-08-23T08:01:44.093Z,24.9
2018-08-23T08:02:34.221Z,24.9
2018-08-23T08:03:24.297Z,24.9
2018-08-23T08:04:13.904Z,24.9
2018-08-23T08:05:04.038Z,24.9
2018-08-23T08:05:54.398Z,24.9
2018-08-23T08:06:43.194Z,24.9
2018-08-23T08:07:34.948Z,24.9
2018-08-23T08:08:24.415Z,24.9
2018-08-23T08:09:14.518Z,24.9
2018-08-23T08:10:03.815Z,24.9
2018-08-23T08:10:54.977Z,24.9
2018-08-23T08:11:45.257Z,25
2018-08-23T08:12:34.504Z,24.9
2018-08-23T08:13:25.141Z,24.9
2018-08-23T08:14:15.542Z,24.9
2018-08-23T08:15:07.987Z,25
2018-08-23T08:15:55.317Z,25
2018-08-23T08:16:45.439Z,25
2018-08-23T08:17:34.755Z,25
2018-08-23T08:18:25.009Z,25
2018-08-23T08:19:15.349Z,25
2018-08-23T08:20:05.344Z,25
2018-08-23T08:20:57.239Z,25
2018-08-23T08:21:46.676Z,25
2018-08-23T08:22:35.902Z,25
2018-08-23T08:23:25.999Z,25
2018-08-23T08:24:14.376Z,25
2018-08-23T08:25:05.552Z,25
2018-08-23T08:25:56.193Z,25
2018-08-23T08:26:45.570Z,25
2018-08-23T08:27:35.724Z,25
2018-08-23T08:28:26.365Z,25
2018-08-23T08:29:16.891Z,25
2018-08-23T08:30:06.449Z,25
2018-08-23T08:30:56.057Z,25
2018-08-23T08:31:46.629Z,25
2018-08-23T08:32:37.331Z,25
2018-08-23T08:33:27.533Z,25.1
2018-08-23T08:34:16.531Z,25
2018-08-23T08:35:06.981Z,25.1
2018-08-23T08:35:56.361Z,25
2018-08-23T08:36:47.510Z,25.1
2018-08-23T08:37:37.713Z,25.1
2018-08-23T08:38:27.368Z,25.1
2018-08-23T08:39:17.063Z,25.1
2018-08-23T08:40:07.243Z,25.1
2018-08-23T08:40:57.699Z,25.1
2018-08-23T08:41:47.000Z,25.1
2018-08-23T08:42:37.645Z,25.1
2018-08-23T08:43:26.670Z,25.1
2018-08-23T08:44:18.230Z,25.1
2018-08-23T08:45:07.773Z,25.1
2018-08-23T08:45:57.870Z,25.1
2018-08-23T08:46:48.346Z,25.1
2018-08-23T08:47:38.331Z,25.1
2018-08-23T08:48:27.346Z,25.1
2018-08-23T08:49:17.118Z,25.1
2018-08-23T08:50:07.820Z,25.1
2018-08-23T08:50:58.814Z,25.1
2018-08-23T08:51:47.413Z,25.1
2018-08-23T08:52:37.801Z,25.1
2018-08-23T08:53:28.156Z,25.1
2018-08-23T08:54:18.524Z,25.1
2018-08-23T08:55:07.066Z,25.1
2018-08-23T08:55:57.870Z,25.1
2018-08-23T08:56:49.577Z,25.1
2018-08-23T08:57:39.147Z,25.1
2018-08-23T08:58:29.062Z,25.1
2018-08-23T09:15:07.145Z,25.1
2018-08-23T09:15:57.261Z,25.2
2018-08-23T09:16:47.356Z,25.2
2018-08-23T09:17:36.875Z,25.2
2018-08-23T09:18:27.653Z,25.3
2018-08-23T09:19:16.979Z,25.2
2018-08-23T09:20:07.646Z,25.3
2018-08-23T09:20:58.749Z,25.3
2018-08-23T09:21:47.384Z,25.3
2018-08-23T09:22:37.826Z,25.3
2018-08-23T09:23:27.736Z,25.3
2018-08-23T09:24:17.016Z,25.3
2018-08-23T09:25:08.263Z,25.3
2018-08-23T09:25:57.703Z,25.3
2018-08-23T09:26:48.112Z,25.3
2018-08-23T09:27:37.940Z,25.3
2018-08-23T09:28:26.884Z,25.3
2018-08-23T09:29:17.619Z,25.3
2018-08-23T09:30:08.464Z,25.3
2018-08-23T09:30:57.289Z,25.3
2018-08-23T09:31:48.276Z,25.3
2018-08-23T09:32:38.611Z,25.3
2018-08-23T09:33:28.378Z,25.3
2018-08-23T09:34:18.691Z,25.3
2018-08-23T09:35:10.575Z,25.3
2018-08-23T09:35:58.131Z,25.3
2018-08-23T09:36:48.883Z,25.3
2018-08-23T09:37:37.820Z,25.3
2018-08-23T09:38:28.516Z,25.3
2018-08-23T09:39:18.256Z,25.3
2018-08-23T09:40:09.491Z,25.3
2018-08-23T09:40:58.701Z,25.3
2018-08-23T09:41:48.959Z,25.3
2018-08-23T09:42:38.704Z,25.3
2018-08-23T09:43:29.398Z,25.3
2018-08-23T09:44:18.618Z,25.3
2018-08-23T09:45:09.766Z,25.3
2018-08-23T09:45:58.764Z,25.3
2018-08-23T09:46:49.288Z,25.3
2018-08-23T09:47:38.004Z,25.3
2018-08-23T09:48:28.931Z,25.3
2018-08-23T09:49:19.235Z,25.3
2018-08-23T09:50:10.950Z,25.3
2018-08-23T09:51:01.663Z,25.3
2018-08-23T09:51:50.060Z,25.3
2018-08-23T09:52:39.795Z,25.3
2018-08-23T09:53:30.182Z,25.3
2018-08-23T09:54:19.456Z,25.3
2018-08-23T09:55:09.766Z,25.3
2018-08-23T09:55:59.359Z,25.3
2018-08-23T09:56:51.525Z,25.3
2018-08-23T09:57:39.601Z,25.3
2018-08-23T09:58:29.717Z,25.3
2018-08-23T09:59:20.346Z,25.3
2018-08-23T10:00:10.108Z,25.3
2018-08-23T10:01:00.505Z,25.3
2018-08-23T10:01:49.988Z,25.3
2018-08-23T10:02:40.413Z,25.3
2018-08-23T10:03:30.219Z,25.3
2018-08-23T10:04:22.412Z,25.4
2018-08-23T10:05:11.418Z,25.3
2018-08-23T10:06:00.184Z,25.4
2018-08-23T10:06:49.911Z,25.4
2018-08-23T10:07:40.215Z,25.4
2018-08-23T10:08:31.647Z,25.3
2018-08-23T10:09:21.153Z,25.4
2018-08-23T10:10:11.758Z,25.4
2018-08-23T10:11:00.978Z,25.4
2018-08-23T10:11:53.549Z,25.4
2018-08-23T10:12:41.453Z,25.4
2018-08-23T10:13:31.445Z,25.4
2018-08-23T10:14:21.754Z,25.4
2018-08-23T10:15:11.531Z,25.4
2018-08-23T10:16:00.780Z,25.4
2018-08-23T10:16:51.222Z,25.4
2018-08-23T10:17:42.048Z,25.4
2018-08-23T10:18:30.655Z,25.4
2018-08-23T10:19:22.082Z,25.4
2018-08-23T10:20:12.240Z,25.4
2018-08-23T10:21:01.537Z,25.4
2018-08-23T10:21:52.728Z,25.4
2018-08-23T10:22:42.416Z,25.4
2018-08-23T10:23:32.482Z,25.4
2018-08-23T10:24:22.268Z,25.4
2018-08-23T10:25:12.866Z,25.4
2018-08-23T10:26:02.748Z,25.4
2018-08-23T10:26:53.417Z,25.4
2018-08-23T10:27:43.893Z,25.4
2018-08-23T10:28:32.597Z,25.4
2018-08-23T10:29:22.933Z,25.4
2018-08-23T10:30:12.195Z,25.4
2018-08-23T10:31:02.660Z,25.4
2018-08-23T10:31:52.374Z,25.4
2018-08-23T10:32:43.317Z,25.4
2018-08-23T10:33:33.680Z,25.4
2018-08-23T10:34:23.524Z,25.4
2018-08-23T10:35:12.709Z,25.4
2018-08-23T10:36:03.428Z,25.5
2018-08-23T10:36:52.925Z,25.4
2018-08-23T10:37:43.240Z,25.4
2018-08-23T10:38:32.736Z,25.4
2018-08-23T10:39:23.481Z,25.5
2018-08-23T10:40:13.838Z,25.4
2018-08-23T10:41:03.135Z,25.4
2018-08-23T10:41:53.215Z,25.4
2018-08-23T10:42:42.600Z,25.4
2018-08-23T10:43:33.785Z,25.5
2018-08-23T10:44:25.098Z,25.5
2018-08-23T10:45:13.398Z,25.5
2018-08-23T10:46:03.737Z,25.5
2018-08-23T10:46:54.065Z,25.5
2018-08-23T10:47:44.437Z,25.5
2018-08-23T10:48:34.574Z,25.5
2018-08-23T10:49:24.576Z,25.5
2018-08-23T10:50:14.320Z,25.5
2018-08-23T10:51:05.700Z,25.5
2018-08-23T10:51:53.674Z,25.5
2018-08-23T10:52:45.052Z,25.5
2018-08-23T10:53:35.124Z,25.6
2018-08-23T10:54:24.652Z,25.5
2018-08-23T10:55:15.234Z,25.6
2018-08-23T10:56:05.232Z,25.5
2018-08-23T10:56:55.406Z,25.6
2018-08-23T10:57:45.236Z,25.6
2018-08-23T10:58:35.304Z,25.6
2018-08-23T10:59:25.361Z,25.6
2018-08-23T11:00:15.387Z,25.6
2018-08-23T11:01:05.814Z,25.5
2018-08-23T11:01:55.013Z,25.6
2018-08-23T11:02:45.574Z,25.6
2018-08-23T11:03:35.760Z,25.6
2018-08-23T11:04:25.488Z,25.6
2018-08-23T11:05:15.453Z,25.6
2018-08-23T11:06:05.839Z,25.6
2018-08-23T11:06:55.435Z,25.6
2018-08-23T11:07:46.036Z,25.6
2018-08-23T11:08:36.291Z,25.6
2018-08-23T11:09:26.438Z,25.6
2018-08-23T11:10:16.471Z,25.6
2018-08-23T11:11:06.026Z,25.6
2018-08-23T11:11:56.221Z,25.6
2018-08-23T11:12:46.183Z,25.6
2018-08-23T11:13:36.591Z,25.6
2018-08-23T11:14:26.323Z,25.6
2018-08-23T11:15:16.103Z,25.6
2018-08-23T11:16:06.635Z,25.6
2018-08-23T11:16:58.875Z,25.6
2018-08-23T11:17:46.473Z,25.6
2018-08-23T11:18:36.867Z,25.6
2018-08-23T11:19:26.363Z,25.6
2018-08-23T11:20:16.095Z,25.6
2018-08-23T11:21:06.205Z,25.6
2018-08-23T11:21:56.765Z,25.6
2018-08-23T11:22:47.112Z,25.6
2018-08-23T11:23:36.723Z,25.6
2018-08-23T11:24:27.682Z,25.6
2018-08-23T11:25:17.419Z,25.6
2018-08-23T11:26:07.416Z,25.6
2018-08-23T11:26:57.207Z,25.6
2018-08-23T11:27:47.851Z,25.6
2018-08-23T11:28:37.047Z,25.6
2018-08-23T11:29:27.602Z,25.6
2018-08-23T11:30:17.759Z,25.6
2018-08-23T11:31:07.469Z,25.6
2018-08-23T11:31:57.834Z,25.6
2018-08-23T11:32:47.877Z,25.6
2018-08-23T11:33:38.342Z,25.6
2018-08-23T11:34:27.255Z,25.6
2018-08-23T11:35:19.957Z,25.6
2018-08-23T11:36:08.257Z,25.6
2018-08-23T11:36:57.984Z,25.6
2018-08-23T11:37:47.526Z,25.6
2018-08-23T11:38:37.865Z,25.6
2018-08-23T11:39:28.516Z,25.7
2018-08-23T11:40:18.552Z,25.6
2018-08-23T11:41:07.904Z,25.6
2018-08-23T11:41:58.926Z,25.6
2018-08-23T11:42:49.370Z,25.6
2018-08-23T11:43:38.809Z,25.7
2018-08-23T11:44:28.570Z,25.6
2018-08-23T11:45:18.436Z,25.7
2018-08-23T11:46:09.139Z,25.7
2018-08-23T11:46:59.339Z,25.6
2018-08-23T11:47:49.204Z,25.6
2018-08-23T11:48:38.503Z,25.6
2018-08-23T11:49:28.475Z,25.6
2018-08-23T11:50:19.385Z,25.7
2018-08-23T11:51:08.666Z,25.6
2018-08-23T11:51:58.684Z,25.7
2018-08-23T11:52:48.817Z,25.7
2018-08-23T11:53:46.063Z,25.7
2018-08-23T11:54:28.864Z,25.6
2018-08-23T11:55:19.244Z,25.7
2018-08-23T11:56:09.597Z,25.7
2018-08-23T11:56:59.381Z,25.7
2018-08-23T11:57:48.551Z,25.7
2018-08-23T11:58:40.491Z,25.7
2018-08-23T11:59:29.078Z,25.7
2018-08-23T12:00:19.961Z,25.7
2018-08-23T12:01:10.453Z,25.7
2018-08-23T12:02:00.685Z,25.7
2018-08-23T12:02:49.879Z,25.7